Time;durP1;ratioP1;P1;durP2;ratioP2;P2;SDS_P1;SDS_P2;PMS_P1;PMS_P2;Temp;Humidity;BMP_temperature;BMP_pressure;BME280_temperature;BME280_humidity;BME280_pressure;Samples;Min_cycle;Max_cycle;Signal;HPM_P1;HPM_P2
2022/08/22 00:01:36;;;;;;;0.53;0.50;;;20.90;99.90;;;;;;5087777;28;20181;-80
2022/08/22 00:04:35;;;;;;;0.27;0.27;;;21.00;99.90;;;;;;5085238;28;20179;-80
2022/08/22 00:07:22;;;;;;;0.67;0.67;;;20.80;99.90;;;;;;5092698;28;20199;-81
2022/08/22 00:10:02;;;;;;;0.20;0.20;;;20.80;99.90;;;;;;5085428;28;20200;-80
2022/08/22 00:12:51;;;;;;;0.20;0.20;;;20.80;99.90;;;;;;5090532;28;20234;-80
2022/08/22 00:15:37;;;;;;;0.20;0.20;;;20.80;99.90;;;;;;5084845;28;20161;-80
2022/08/22 00:18:18;;;;;;;0.23;0.23;;;20.90;99.90;;;;;;5086936;28;20273;-80
2022/08/22 00:21:08;;;;;;;1.33;0.50;;;20.90;99.90;;;;;;5092066;28;20550;-80
2022/08/22 00:23:41;;;;;;;1.13;0.33;;;21.00;99.90;;;;;;5092274;28;20180;-80
2022/08/22 00:26:30;;;;;;;0.20;0.20;;;21.00;99.90;;;;;;5083237;28;20214;-80
2022/08/22 00:29:02;;;;;;;0.50;0.27;;;21.00;99.90;;;;;;5083154;28;20177;-80
2022/08/22 00:31:38;;;;;;;0.13;0.13;;;21.10;99.90;;;;;;5086001;28;20203;-80
2022/08/22 00:34:22;;;;;;;0.23;0.23;;;21.10;99.90;;;;;;5090420;28;20704;-80
2022/08/22 00:36:58;;;;;;;0.30;0.30;;;21.20;99.90;;;;;;5093218;28;20576;-80
2022/08/22 00:39:26;;;;;;;0.30;0.30;;;21.20;99.90;;;;;;5086926;28;20192;-80
2022/08/22 00:42:26;;;;;;;0.20;0.20;;;21.20;99.90;;;;;;5097679;28;20240;-80
2022/08/22 00:45:07;;;;;;;0.23;0.23;;;21.20;99.90;;;;;;5085648;28;20820;-80
2022/08/22 00:47:50;;;;;;;0.20;0.20;;;21.20;99.90;;;;;;5083524;28;20676;-80
2022/08/22 00:50:32;;;;;;;0.20;0.20;;;21.20;99.90;;;;;;5087285;28;20200;-80
2022/08/22 00:53:29;;;;;;;0.10;0.10;;;21.20;99.90;;;;;;5085220;28;20795;-80
2022/08/22 00:56:22;;;;;;;0.20;0.20;;;21.20;99.90;;;;;;5082217;28;20554;-80
2022/08/22 00:59:07;;;;;;;0.30;0.30;;;21.10;99.90;;;;;;5114472;27;20255;-80
2022/08/22 01:01:37;;;;;;;0.57;0.33;;;21.10;99.90;;;;;;5086512;28;20193;-81
2022/08/22 01:04:27;;;;;;;0.17;0.17;;;21.10;99.90;;;;;;5096033;28;20604;-80
2022/08/22 01:07:11;;;;;;;0.40;0.40;;;21.20;99.90;;;;;;5092813;28;20643;-80
2022/08/22 01:10:21;;;;;;;0.13;0.13;;;21.00;99.90;;;;;;5088522;28;20206;-80
2022/08/22 01:12:54;;;;;;;0.30;0.30;;;20.90;99.90;;;;;;5093697;28;20202;-80
2022/08/22 01:15:25;;;;;;;0.20;0.20;;;20.80;99.90;;;;;;5093620;28;20177;-80
2022/08/22 01:18:17;;;;;;;0.53;0.53;;;20.80;99.90;;;;;;5091822;28;20604;-80
2022/08/22 01:20:59;;;;;;;0.30;0.30;;;20.90;99.90;;;;;;5086580;28;20649;-80
2022/08/22 01:23:52;;;;;;;0.57;0.47;;;21.10;99.90;;;;;;5095982;28;20173;-80
2022/08/22 01:26:39;;;;;;;0.23;0.23;;;21.30;99.90;;;;;;5083080;28;20213;-80
2022/08/22 01:29:32;;;;;;;0.40;0.40;;;21.30;99.90;;;;;;5087272;28;20181;-80
2022/08/22 01:32:07;;;;;;;0.30;0.30;;;21.30;99.90;;;;;;5084439;28;20220;-80
2022/08/22 01:34:52;;;;;;;0.43;0.43;;;21.30;99.90;;;;;;5085562;28;20646;-80
2022/08/22 01:37:58;;;;;;;0.10;0.10;;;21.30;99.90;;;;;;5097432;28;20197;-80
2022/08/22 01:40:42;;;;;;;0.10;0.10;;;21.30;99.90;;;;;;5087501;28;20168;-81
2022/08/22 01:43:10;;;;;;;0.50;0.50;;;21.20;99.90;;;;;;5095825;28;20199;-81
2022/08/22 01:46:00;;;;;;;0.37;0.37;;;20.90;99.90;;;;;;5083771;28;20676;-80
2022/08/22 01:48:46;;;;;;;0.30;0.30;;;20.80;99.90;;;;;;5093896;28;20196;-80
2022/08/22 01:51:35;;;;;;;1.03;0.30;;;20.70;99.90;;;;;;5093955;28;20572;-80
2022/08/22 01:54:19;;;;;;;0.20;0.20;;;20.80;99.90;;;;;;5093643;28;20171;-80
2022/08/22 01:56:46;;;;;;;0.20;0.20;;;20.80;99.90;;;;;;5093041;28;20231;-80
2022/08/22 01:59:29;;;;;;;0.20;0.20;;;20.80;99.90;;;;;;5111739;28;20768;-80
2022/08/22 02:02:14;;;;;;;0.30;0.30;;;20.90;99.90;;;;;;5103220;28;20184;-80
2022/08/22 02:04:52;;;;;;;0.20;0.20;;;20.90;99.90;;;;;;5102322;28;20177;-81
2022/08/22 02:07:18;;;;;;;0.27;0.27;;;20.90;99.90;;;;;;5115325;27;20209;-80
2022/08/22 02:09:46;;;;;;;0.30;0.30;;;20.90;99.90;;;;;;5096379;28;21071;-80
2022/08/22 02:12:26;;;;;;;0.30;0.30;;;20.90;99.90;;;;;;5093684;28;20177;-80
2022/08/22 02:15:01;;;;;;;0.30;0.30;;;20.80;99.90;;;;;;5092306;28;20168;-80
2022/08/22 02:17:54;;;;;;;0.83;0.27;;;20.80;99.90;;;;;;5097370;28;20222;-80
2022/08/22 02:20:29;;;;;;;3.47;0.27;;;20.70;99.90;;;;;;5083034;28;20184;-80
2022/08/22 02:23:29;;;;;;;0.30;0.30;;;20.60;99.90;;;;;;5088936;28;20168;-80
2022/08/22 02:26:02;;;;;;;0.37;0.37;;;20.60;99.90;;;;;;5094459;28;20654;-80
2022/08/22 02:28:30;;;;;;;0.27;0.27;;;20.50;99.90;;;;;;5101289;28;20262;-79
2022/08/22 02:31:05;;;;;;;0.73;0.60;;;20.50;99.90;;;;;;5088124;28;20233;-80
2022/08/22 02:33:34;;;;;;;0.30;0.30;;;20.50;99.90;;;;;;5092767;28;20543;-81
2022/08/22 02:36:06;;;;;;;0.97;0.97;;;20.50;99.90;;;;;;5094969;28;20172;-80
2022/08/22 02:38:37;;;;;;;0.20;0.20;;;20.50;99.90;;;;;;5095210;28;20205;-80
2022/08/22 02:41:16;;;;;;;0.43;0.43;;;20.40;99.90;;;;;;5095514;28;20197;-80
2022/08/22 02:43:58;;;;;;;0.60;0.43;;;20.40;99.90;;;;;;5095417;28;20184;-80
2022/08/22 02:46:54;;;;;;;0.20;0.20;;;20.40;99.90;;;;;;5088483;28;20204;-81
2022/08/22 02:49:55;;;;;;;0.47;0.30;;;20.30;99.90;;;;;;5094750;28;20192;-80
2022/08/22 02:52:27;;;;;;;0.27;0.27;;;20.30;99.90;;;;;;5083909;28;20185;-80
2022/08/22 02:55:28;;;;;;;0.20;0.20;;;20.20;99.90;;;;;;5089527;28;20228;-80
2022/08/22 02:58:04;;;;;;;0.30;0.30;;;20.20;99.90;;;;;;5069546;28;20216;-80
2022/08/22 03:01:08;;;;;;;0.27;0.27;;;20.30;99.90;;;;;;5104102;28;20262;-80
2022/08/22 03:03:39;;;;;;;0.20;0.20;;;20.30;99.90;;;;;;5091142;28;20207;-81
2022/08/22 03:06:33;;;;;;;0.30;0.30;;;20.40;99.90;;;;;;5086610;28;20808;-80
2022/08/22 03:09:14;;;;;;;0.23;0.23;;;20.50;99.90;;;;;;5070560;28;20938;-80
2022/08/22 03:11:45;;;;;;;0.23;0.23;;;20.50;99.90;;;;;;5087508;28;20303;-81
2022/08/22 03:14:35;;;;;;;0.30;0.30;;;20.50;99.90;;;;;;5092084;28;20178;-80
2022/08/22 03:17:15;;;;;;;0.10;0.10;;;20.60;99.90;;;;;;5080384;28;20241;-80
2022/08/22 03:19:56;;;;;;;0.20;0.20;;;20.60;99.90;;;;;;5090480;28;20204;-80
2022/08/22 03:22:42;;;;;;;0.20;0.20;;;20.60;99.90;;;;;;5088415;28;20334;-80
2022/08/22 03:25:20;;;;;;;0.20;0.20;;;20.60;99.90;;;;;;5089310;28;20183;-81
2022/08/22 03:27:56;;;;;;;0.30;0.30;;;20.60;99.90;;;;;;5078221;28;20237;-81
2022/08/22 03:30:32;;;;;;;0.57;0.47;;;20.50;99.90;;;;;;5076185;28;20196;-80
2022/08/22 03:33:11;;;;;;;0.23;0.23;;;20.30;99.90;;;;;;5078935;28;21021;-80
2022/08/22 03:35:40;;;;;;;0.20;0.20;;;20.40;99.90;;;;;;5080239;28;20259;-80
2022/08/22 03:38:27;;;;;;;0.50;0.40;;;20.30;99.90;;;;;;5085062;28;20250;-80
2022/08/22 03:41:19;;;;;;;0.20;0.20;;;20.40;99.90;;;;;;5082413;28;20183;-80
2022/08/22 03:43:50;;;;;;;0.20;0.20;;;20.30;99.90;;;;;;5078667;28;20653;-80
2022/08/22 03:46:22;;;;;;;0.43;0.43;;;20.30;99.90;;;;;;5088299;28;20230;-80
2022/08/22 03:49:25;;;;;;;0.30;0.30;;;20.40;99.90;;;;;;5084909;28;20236;-80
2022/08/22 03:52:14;;;;;;;0.20;0.20;;;20.40;99.90;;;;;;5089426;28;20183;-80
2022/08/22 03:55:02;;;;;;;0.50;0.50;;;20.40;99.90;;;;;;5080358;28;20665;-81
2022/08/22 03:57:33;;;;;;;0.10;0.10;;;20.40;99.90;;;;;;5078690;28;20281;-80
2022/08/22 04:00:10;;;;;;;0.93;0.70;;;20.30;99.90;;;;;;5086087;28;20203;-80
2022/08/22 04:02:52;;;;;;;0.40;0.40;;;20.20;99.90;;;;;;5098220;28;20179;-80
2022/08/22 04:05:47;;;;;;;1.13;0.30;;;20.00;99.90;;;;;;5078322;28;20189;-81
2022/08/22 04:08:43;;;;;;;0.20;0.20;;;20.10;99.90;;;;;;5089488;28;20227;-81
2022/08/22 04:11:41;;;;;;;0.30;0.30;;;20.10;99.90;;;;;;5078955;28;20209;-80
2022/08/22 04:14:22;;;;;;;0.20;0.20;;;20.10;99.90;;;;;;5086810;28;20180;-80
2022/08/22 04:17:10;;;;;;;0.30;0.30;;;20.00;99.90;;;;;;5096857;28;20263;-80
2022/08/22 04:20:07;;;;;;;0.47;0.47;;;20.00;99.90;;;;;;5079441;28;20173;-81
2022/08/22 04:22:51;;;;;;;0.13;0.13;;;19.90;99.90;;;;;;5078662;28;20189;-80
2022/08/22 04:25:26;;;;;;;0.30;0.30;;;19.80;99.90;;;;;;5084757;28;20180;-80
2022/08/22 04:27:56;;;;;;;0.20;0.20;;;19.60;99.90;;;;;;5092166;28;20199;-80
2022/08/22 04:30:30;;;;;;;1.07;0.43;;;19.70;99.90;;;;;;5087078;28;20294;-80
2022/08/22 04:33:29;;;;;;;0.57;0.57;;;19.70;99.90;;;;;;5097322;28;20313;-80
2022/08/22 04:36:22;;;;;;;0.40;0.20;;;19.70;99.90;;;;;;5079692;28;20176;-80
2022/08/22 04:39:03;;;;;;;0.30;0.30;;;19.80;99.90;;;;;;5095601;28;20286;-80
2022/08/22 04:41:54;;;;;;;0.40;0.40;;;19.80;99.90;;;;;;5094600;28;20535;-80
2022/08/22 04:44:46;;;;;;;0.37;0.37;;;19.80;99.90;;;;;;5079427;28;20211;-79
2022/08/22 04:47:28;;;;;;;0.50;0.50;;;19.80;99.90;;;;;;5074126;28;20235;-79
2022/08/22 04:50:20;;;;;;;0.30;0.30;;;19.90;99.90;;;;;;5093160;28;20240;-80
2022/08/22 04:53:08;;;;;;;0.40;0.40;;;19.90;99.90;;;;;;5080789;28;20229;-79
2022/08/22 04:55:51;;;;;;;0.10;0.10;;;19.90;99.90;;;;;;5090731;28;20169;-80
2022/08/22 04:58:38;;;;;;;0.57;0.50;;;19.60;99.90;;;;;;5088127;28;20574;-80
2022/08/22 05:01:12;;;;;;;0.30;0.30;;;19.40;99.90;;;;;;5092110;28;20183;-80
2022/08/22 05:03:44;;;;;;;0.20;0.20;;;19.40;99.90;;;;;;5087223;28;20280;-80
2022/08/22 05:06:14;;;;;;;0.20;0.20;;;19.40;99.90;;;;;;5083844;28;20559;-80
2022/08/22 05:08:45;;;;;;;0.23;0.23;;;19.30;99.90;;;;;;5085518;28;20177;-80
2022/08/22 05:11:13;;;;;;;0.43;0.33;;;19.20;99.90;;;;;;5087624;28;20249;-82
2022/08/22 05:13:43;;;;;;;0.27;0.27;;;19.20;99.90;;;;;;5089457;28;20619;-82
2022/08/22 05:16:23;;;;;;;0.20;0.20;;;19.10;99.90;;;;;;5091671;28;20550;-82
2022/08/22 05:18:53;;;;;;;0.37;0.33;;;19.20;99.90;;;;;;5089157;28;20292;-83
2022/08/22 05:21:24;;;;;;;0.53;0.53;;;19.20;99.90;;;;;;5079873;28;20193;-79
2022/08/22 05:24:00;;;;;;;0.47;0.47;;;19.20;99.90;;;;;;5086575;28;20187;-79
2022/08/22 05:26:28;;;;;;;0.30;0.30;;;19.10;99.90;;;;;;5084060;28;20612;-79
2022/08/22 05:29:00;;;;;;;0.53;0.47;;;19.10;99.90;;;;;;5081526;28;20189;-79
2022/08/22 05:31:33;;;;;;;0.53;0.53;;;19.30;99.90;;;;;;5095020;28;20261;-80
2022/08/22 05:34:11;;;;;;;0.30;0.30;;;19.40;99.90;;;;;;5084165;28;20483;-79
2022/08/22 05:36:42;;;;;;;0.97;0.87;;;19.50;99.90;;;;;;5094825;28;20342;-80
2022/08/22 05:39:15;;;;;;;0.93;0.40;;;19.50;99.90;;;;;;5088153;28;20184;-79
2022/08/22 05:41:41;;;;;;;1.70;1.17;;;19.70;99.90;;;;;;5091730;28;20266;-80
2022/08/22 05:44:19;;;;;;;0.50;0.50;;;19.80;99.90;;;;;;5083864;28;20271;-79
2022/08/22 05:46:50;;;;;;;0.40;0.40;;;19.80;99.90;;;;;;5089200;28;20287;-79
2022/08/22 05:49:26;;;;;;;0.30;0.30;;;20.00;99.90;;;;;;5094239;28;20334;-79
2022/08/22 05:52:07;;;;;;;0.33;0.33;;;20.10;99.90;;;;;;5081436;28;20253;-80
2022/08/22 05:54:41;;;;;;;0.20;0.20;;;20.20;99.90;;;;;;5087658;28;20184;-79
2022/08/22 05:57:29;;;;;;;0.40;0.40;;;20.30;99.90;;;;;;5092538;28;20206;-80
2022/08/22 06:00:03;;;;;;;0.30;0.30;;;20.30;99.90;;;;;;5090618;28;20207;-80
2022/08/22 06:02:52;;;;;;;0.10;0.10;;;20.40;99.90;;;;;;5089370;28;20180;-80
2022/08/22 06:05:27;;;;;;;0.30;0.30;;;20.60;99.90;;;;;;5091570;28;20180;-80
2022/08/22 06:08:01;;;;;;;0.40;0.40;;;20.70;99.90;;;;;;5086974;28;20209;-79
2022/08/22 06:10:37;;;;;;;4.73;0.40;;;20.90;99.90;;;;;;5088801;28;20208;-79
2022/08/22 06:13:33;;;;;;;0.30;0.30;;;20.90;99.90;;;;;;5096276;28;20181;-80
2022/08/22 06:16:22;;;;;;;0.30;0.30;;;21.20;99.90;;;;;;5085096;28;20562;-80
2022/08/22 06:18:50;;;;;;;0.40;0.40;;;21.40;99.90;;;;;;5085842;28;20190;-80
2022/08/22 06:21:35;;;;;;;0.50;0.50;;;21.50;99.90;;;;;;5084209;28;20183;-79
2022/08/22 06:24:02;;;;;;;0.40;0.40;;;21.70;99.90;;;;;;5085121;28;20217;-81
2022/08/22 06:26:37;;;;;;;0.60;0.50;;;21.90;99.90;;;;;;5090116;28;20696;-80
2022/08/22 06:29:06;;;;;;;7.07;0.40;;;22.20;99.90;;;;;;5095134;28;20185;-80
2022/08/22 06:31:35;;;;;;;0.40;0.40;;;22.50;99.90;;;;;;5078615;28;20204;-80
2022/08/22 06:34:09;;;;;;;0.40;0.40;;;22.40;99.90;;;;;;5084293;28;20181;-80
2022/08/22 06:36:37;;;;;;;0.37;0.37;;;22.20;99.90;;;;;;5084401;28;20205;-80
2022/08/22 06:39:12;;;;;;;0.43;0.43;;;22.20;99.90;;;;;;5082615;28;20185;-79
2022/08/22 06:41:50;;;;;;;0.67;0.67;;;22.30;99.90;;;;;;5093920;28;20175;-79
2022/08/22 06:44:21;;;;;;;0.30;0.30;;;22.40;99.90;;;;;;5088963;28;20514;-79
2022/08/22 06:46:49;;;;;;;0.30;0.30;;;22.50;99.90;;;;;;5078764;28;20223;-79
2022/08/22 06:49:15;;;;;;;0.70;0.70;;;22.40;99.90;;;;;;5086455;28;20204;-79
2022/08/22 06:51:43;;;;;;;2.17;0.67;;;22.40;99.90;;;;;;5083156;28;20271;-79
2022/08/22 06:54:17;;;;;;;2.23;0.90;;;22.80;99.90;;;;;;5088076;28;20533;-79
2022/08/22 06:56:46;;;;;;;0.47;0.47;;;23.00;99.90;;;;;;5082534;28;20208;-78
2022/08/22 06:59:16;;;;;;;0.73;0.73;;;23.00;99.90;;;;;;5086853;28;20631;-79
2022/08/22 07:02:00;;;;;;;0.40;0.40;;;23.30;99.90;;;;;;5083137;28;20185;-81
2022/08/22 07:04:26;;;;;;;0.47;0.37;;;23.40;99.90;;;;;;5076023;28;20184;-80
2022/08/22 07:06:55;;;;;;;0.30;0.30;;;23.40;99.90;;;;;;5079844;28;20227;-79
2022/08/22 07:09:39;;;;;;;1.07;0.90;;;23.70;99.90;;;;;;5083840;28;20200;-79
2022/08/22 07:12:18;;;;;;;1.47;1.10;;;23.40;99.90;;;;;;5076746;28;20671;-79
2022/08/22 07:14:48;;;;;;;0.63;0.60;;;23.30;99.90;;;;;;5088071;28;20177;-79
2022/08/22 07:17:26;;;;;;;0.57;0.47;;;23.40;99.90;;;;;;5080703;28;20192;-79
2022/08/22 07:20:04;;;;;;;0.73;0.67;;;23.30;99.90;;;;;;5081229;28;20636;-79
2022/08/22 07:22:34;;;;;;;1.03;0.80;;;23.10;99.90;;;;;;5084230;28;20188;-79
2022/08/22 07:25:09;;;;;;;1.30;1.20;;;22.70;99.90;;;;;;5084059;28;20227;-80
2022/08/22 07:28:00;;;;;;;1.43;0.67;;;22.70;99.90;;;;;;5090826;28;20262;-79
2022/08/22 07:30:49;;;;;;;0.97;0.80;;;22.50;99.90;;;;;;5087884;28;20207;-79
2022/08/22 07:33:29;;;;;;;1.97;0.57;;;22.30;99.90;;;;;;5082776;28;20559;-79
2022/08/22 07:35:59;;;;;;;0.90;0.90;;;22.30;99.90;;;;;;5085308;28;20252;-79
2022/08/22 07:38:42;;;;;;;1.13;0.50;;;22.60;99.90;;;;;;5079448;28;20177;-79
2022/08/22 07:41:27;;;;;;;0.40;0.40;;;23.40;99.90;;;;;;5076935;28;20272;-79
2022/08/22 07:44:16;;;;;;;0.87;0.83;;;23.80;99.90;;;;;;5081264;28;20237;-79
2022/08/22 07:47:07;;;;;;;0.40;0.40;;;24.50;99.90;;;;;;5097960;28;20236;-79
2022/08/22 07:49:47;;;;;;;0.77;0.50;;;24.90;99.90;;;;;;5087665;28;20205;-78
2022/08/22 07:52:13;;;;;;;1.43;0.93;;;25.20;99.90;;;;;;5094443;28;20199;-79
2022/08/22 07:55:16;;;;;;;1.40;0.73;;;24.70;99.90;;;;;;5098177;28;20185;-79
2022/08/22 07:57:46;;;;;;;1.27;0.67;;;24.90;99.90;;;;;;5091818;28;20219;-79
2022/08/22 08:00:17;;;;;;;0.57;0.57;;;24.30;99.90;;;;;;5086279;28;20192;-78
2022/08/22 08:02:50;;;;;;;2.27;1.27;;;24.50;99.90;;;;;;5083395;28;20185;-79
2022/08/22 08:05:17;;;;;;;2.07;1.93;;;23.90;99.90;;;;;;5081149;28;20187;-79
2022/08/22 08:07:44;;;;;;;0.93;0.80;;;24.30;99.90;;;;;;5085037;28;20232;-78
2022/08/22 08:10:16;;;;;;;1.00;0.90;;;24.60;99.90;;;;;;5090237;28;20235;-79
2022/08/22 08:12:52;;;;;;;0.57;0.57;;;25.00;99.90;;;;;;5080895;28;20226;-79
2022/08/22 08:15:20;;;;;;;0.47;0.47;;;24.80;99.90;;;;;;5092268;28;20271;-79
2022/08/22 08:17:50;;;;;;;0.57;0.53;;;24.30;99.90;;;;;;5078269;28;20211;-79
2022/08/22 08:20:19;;;;;;;0.43;0.43;;;24.60;99.90;;;;;;5103137;28;20173;-79
2022/08/22 08:22:46;;;;;;;2.20;1.70;;;24.60;99.90;;;;;;5097435;28;20185;-79
2022/08/22 08:25:16;;;;;;;2.07;1.00;;;24.90;99.90;;;;;;5074965;28;20238;-80
2022/08/22 08:30:43;;;;;;;0.63;0.63;;;24.50;99.90;;;;;;5083242;28;20540;-82
2022/08/22 08:33:17;;;;;;;2.43;0.80;;;24.30;99.90;;;;;;5087539;28;20180;-79
2022/08/22 08:35:51;;;;;;;0.97;0.87;;;24.60;99.90;;;;;;5080103;28;20178;-80
2022/08/22 08:38:21;;;;;;;0.50;0.50;;;24.70;99.90;;;;;;5083910;28;20206;-80
2022/08/22 08:41:20;;;;;;;0.80;0.80;;;24.90;99.90;;;;;;5083189;28;20187;-80
2022/08/22 08:44:16;;;;;;;0.60;0.60;;;25.50;99.90;;;;;;5106643;28;20197;-80
2022/08/22 08:47:11;;;;;;;0.47;0.47;;;25.70;99.90;;;;;;5088849;28;20726;-80
2022/08/22 08:49:59;;;;;;;0.37;0.37;;;25.70;99.90;;;;;;5084995;28;20316;-80
2022/08/22 08:53:02;;;;;;;0.53;0.53;;;25.90;99.90;;;;;;5086281;28;20181;-80
2022/08/22 08:55:45;;;;;;;0.70;0.70;;;26.10;99.90;;;;;;5094037;28;20574;-80
2022/08/22 08:58:32;;;;;;;1.17;0.73;;;25.70;99.90;;;;;;5083164;28;20193;-79
2022/08/22 09:01:16;;;;;;;0.77;0.53;;;26.50;99.90;;;;;;5084272;28;20187;-79
2022/08/22 09:04:04;;;;;;;0.60;0.60;;;27.20;99.90;;;;;;5079960;28;20213;-79
2022/08/22 09:07:14;;;;;;;1.33;0.90;;;27.50;99.90;;;;;;5082737;28;20217;-80
2022/08/22 09:09:45;;;;;;;0.87;0.60;;;27.50;99.90;;;;;;5083706;28;20308;-80
2022/08/22 09:12:21;;;;;;;0.87;0.73;;;27.60;99.90;;;;;;5088252;28;20200;-80
2022/08/22 09:14:53;;;;;;;1.40;0.77;;;27.50;99.90;;;;;;5086553;28;20184;-80
2022/08/22 09:17:32;;;;;;;1.23;1.13;;;26.70;99.90;;;;;;5091482;28;20252;-80
2022/08/22 09:20:19;;;;;;;1.80;0.87;;;26.30;99.90;;;;;;5083332;28;20181;-79
2022/08/22 09:23:09;;;;;;;0.90;0.67;;;26.60;99.90;;;;;;5092741;28;20203;-79
2022/08/22 09:25:40;;;;;;;0.80;0.80;;;26.70;99.90;;;;;;5088247;28;20189;-80
2022/08/22 09:28:27;;;;;;;0.40;0.40;;;27.10;99.90;;;;;;5095512;28;20234;-79
2022/08/22 09:31:11;;;;;;;0.83;0.83;;;27.50;99.90;;;;;;5080321;28;20577;-80
2022/08/22 09:34:04;;;;;;;1.10;1.10;;;27.60;99.90;;;;;;5075107;28;20196;-80
2022/08/22 09:36:42;;;;;;;1.03;0.57;;;26.90;99.90;;;;;;5083319;28;20278;-80
2022/08/22 09:39:14;;;;;;;0.60;0.60;;;27.00;99.90;;;;;;5086912;28;20196;-80
2022/08/22 09:41:43;;;;;;;2.43;1.03;;;27.30;99.90;;;;;;5079703;28;20231;-80
2022/08/22 09:44:15;;;;;;;0.80;0.80;;;26.70;99.90;;;;;;5085359;28;20181;-80
2022/08/22 09:47:06;;;;;;;1.00;0.90;;;26.10;99.90;;;;;;5087495;28;20224;-80
2022/08/22 09:49:43;;;;;;;1.20;1.03;;;26.70;99.90;;;;;;5088441;28;20193;-80
2022/08/22 09:52:40;;;;;;;0.70;0.70;;;27.30;99.90;;;;;;5079147;28;20219;-80
2022/08/22 09:55:23;;;;;;;0.67;0.67;;;27.60;99.90;;;;;;5073148;28;20186;-81
2022/08/22 09:57:54;;;;;;;1.47;1.03;;;26.80;99.90;;;;;;5089336;28;20207;-79
2022/08/22 10:00:24;;;;;;;1.33;1.23;;;26.90;99.90;;;;;;5095924;28;20220;-79
2022/08/22 10:03:00;;;;;;;0.73;0.73;;;27.50;99.90;;;;;;5096875;28;20282;-79
2022/08/22 10:05:41;;;;;;;1.00;0.90;;;27.90;99.90;;;;;;5088629;28;20186;-82
2022/08/22 10:08:30;;;;;;;2.50;1.88;;;27.60;99.90;;;;;;5087971;28;20209;-80
2022/08/22 10:11:17;;;;;;;0.65;0.65;;;27.30;99.90;;;;;;5088552;28;20207;-79
2022/08/22 10:14:01;;;;;;;1.30;0.75;;;27.50;99.90;;;;;;5106395;27;20185;-80
2022/08/22 10:16:58;;;;;;;1.17;1.05;;;28.10;99.90;;;;;;5092178;28;20330;-79
2022/08/22 10:19:40;;;;;;;0.93;0.93;;;28.50;99.90;;;;;;5077797;28;20181;-79
2022/08/22 10:22:36;;;;;;;0.60;0.60;;;29.10;99.90;;;;;;5091277;28;20181;-80
2022/08/22 10:25:23;;;;;;;0.90;0.73;;;28.80;99.90;;;;;;5100050;28;20344;-80
2022/08/22 10:28:08;;;;;;;1.00;1.00;;;28.70;99.90;;;;;;5098302;28;20192;-80
2022/08/22 10:31:06;;;;;;;0.80;0.80;;;28.60;99.90;;;;;;5096556;28;20228;-80
2022/08/22 10:33:38;;;;;;;1.40;1.02;;;28.80;99.90;;;;;;5085786;28;20238;-80
2022/08/22 10:36:14;;;;;;;0.55;0.50;;;28.90;99.90;;;;;;5088750;28;20234;-80
2022/08/22 10:38:49;;;;;;;0.68;0.68;;;29.00;99.90;;;;;;5096733;28;21187;-79
2022/08/22 10:41:47;;;;;;;0.73;0.73;;;29.40;99.90;;;;;;5084584;28;20184;-79
2022/08/22 10:44:54;;;;;;;0.68;0.68;;;29.50;99.90;;;;;;5015923;28;20293;-79
2022/08/22 10:47:40;;;;;;;1.50;0.90;;;30.00;99.90;;;;;;5029239;28;20248;-80
2022/08/22 10:50:20;;;;;;;0.75;0.75;;;29.30;99.90;;;;;;5085120;28;20750;-79
2022/08/22 10:53:28;;;;;;;1.77;0.65;;;29.70;99.90;;;;;;5080109;28;20176;-79
2022/08/22 10:55:40;;;;;;;0.90;0.90;;;30.10;99.90;;;;;;5084142;28;20176;-80
2022/08/22 10:58:26;;;;;;;0.90;0.80;;;29.30;99.90;;;;;;5095250;28;20677;-80
2022/08/22 11:00:58;;;;;;;0.43;0.43;;;29.80;99.90;;;;;;5098319;28;20204;-80
2022/08/22 11:03:23;;;;;;;0.57;0.57;;;30.30;99.90;;;;;;5084977;28;20211;-80
2022/08/22 11:05:59;;;;;;;0.70;0.70;;;30.60;99.90;;;;;;5088633;28;20190;-80
2022/08/22 11:08:43;;;;;;;0.60;0.60;;;30.90;99.90;;;;;;5088926;28;20212;-80
2022/08/22 11:11:33;;;;;;;0.95;0.80;;;31.20;99.90;;;;;;5097271;28;20333;-80
2022/08/22 11:14:23;;;;;;;1.00;0.90;;;31.40;99.90;;;;;;5083821;28;20179;-80
2022/08/22 11:17:21;;;;;;;0.60;0.60;;;31.50;99.90;;;;;;5084106;28;20296;-80
2022/08/22 11:20:19;;;;;;;1.30;1.20;;;31.80;99.90;;;;;;5032651;28;20204;-80
2022/08/22 11:22:45;;;;;;;0.70;0.70;;;31.70;99.90;;;;;;5088671;28;20523;-80
2022/08/22 11:25:19;;;;;;;0.90;0.88;;;32.00;99.90;;;;;;5086582;28;20179;-80
2022/08/22 11:28:03;;;;;;;0.68;0.68;;;32.10;99.90;;;;;;5093325;28;20200;-80
2022/08/22 11:30:37;;;;;;;0.60;0.60;;;32.30;99.90;;;;;;5096991;28;20283;-80
2022/08/22 11:33:28;;;;;;;0.63;0.60;;;32.60;99.90;;;;;;5089528;28;20863;-80
2022/08/22 11:36:10;;;;;;;1.00;0.90;;;32.50;99.90;;;;;;5098479;28;20249;-80
2022/08/22 11:38:59;;;;;;;0.60;0.60;;;32.40;99.90;;;;;;5085545;28;20176;-81
2022/08/22 11:41:32;;;;;;;0.50;0.50;;;32.60;99.90;;;;;;5086850;28;20188;-80
2022/08/22 11:44:30;;;;;;;0.30;0.30;;;32.90;99.90;;;;;;5084804;28;20196;-80
2022/08/22 11:46:57;;;;;;;9.40;1.00;;;33.10;99.90;;;;;;5077896;28;20215;-81
2022/08/22 11:49:39;;;;;;;3.15;0.73;;;31.50;99.90;;;;;;5089959;28;20205;-81
2022/08/22 11:52:37;;;;;;;0.70;0.70;;;31.60;99.90;;;;;;5076968;28;20176;-81
2022/08/22 11:55:33;;;;;;;0.40;0.40;;;31.80;99.90;;;;;;5095578;28;20182;-80
2022/08/22 11:58:24;;;;;;;0.43;0.43;;;32.00;99.90;;;;;;5094571;28;20199;-80
2022/08/22 12:01:01;;;;;;;0.57;0.52;;;31.70;99.90;;;;;;5094314;28;20737;-80
2022/08/22 12:04:08;;;;;;;0.55;0.40;;;31.60;99.90;;;;;;5088238;28;20719;-80
2022/08/22 12:06:57;;;;;;;1.13;0.70;;;31.50;99.90;;;;;;5030705;28;20206;-80
2022/08/22 12:09:41;;;;;;;0.60;0.60;;;31.40;99.90;;;;;;5023146;28;20189;-80
2022/08/22 12:12:16;;;;;;;0.90;0.90;;;31.20;99.90;;;;;;5072875;28;20223;-80
2022/08/22 12:14:54;;;;;;;0.40;0.40;;;31.60;99.90;;;;;;5092064;28;20180;-80
2022/08/22 12:17:40;;;;;;;1.92;1.02;;;31.90;99.90;;;;;;5100360;28;20207;-80
2022/08/22 12:20:22;;;;;;;0.52;0.52;;;31.70;99.90;;;;;;5075092;28;20181;-80
2022/08/22 12:23:26;;;;;;;0.73;0.70;;;31.60;99.90;;;;;;5084663;28;20540;-80
2022/08/22 12:26:20;;;;;;;0.63;0.63;;;31.40;99.90;;;;;;5055098;28;20547;-80
2022/08/22 12:29:17;;;;;;;1.48;1.27;;;31.70;99.90;;;;;;5088533;28;20259;-80
2022/08/22 12:32:15;;;;;;;0.77;0.77;;;30.80;99.90;;;;;;5090624;28;20205;-80
2022/08/22 12:34:53;;;;;;;0.70;0.70;;;31.50;99.90;;;;;;5074845;28;20185;-80
2022/08/22 12:37:29;;;;;;;1.10;0.95;;;32.20;99.90;;;;;;5080669;28;20228;-80
2022/08/22 12:40:12;;;;;;;0.50;0.50;;;32.50;99.90;;;;;;5074945;28;20191;-80
2022/08/22 12:43:19;;;;;;;0.55;0.55;;;32.80;99.90;;;;;;5090722;28;20188;-80
2022/08/22 12:46:08;;;;;;;0.77;0.57;;;32.70;99.90;;;;;;4995334;28;20187;-80
2022/08/22 12:49:01;;;;;;;1.48;0.50;;;32.70;99.90;;;;;;5072256;28;20294;-80
2022/08/22 12:51:48;;;;;;;1.38;0.93;;;32.90;99.80;;;;;;5090010;28;20573;-81
2022/08/22 12:54:46;;;;;;;0.70;0.70;;;32.50;99.70;;;;;;5087523;28;20184;-80
2022/08/22 12:57:53;;;;;;;0.57;0.57;;;32.00;99.60;;;;;;5091115;28;20196;-80
2022/08/22 13:00:36;;;;;;;0.63;0.63;;;31.40;99.50;;;;;;5082703;28;20551;-80
2022/08/22 13:03:09;;;;;;;0.80;0.80;;;31.30;99.80;;;;;;5091734;28;20173;-80
2022/08/22 13:05:37;;;;;;;0.77;0.68;;;30.90;99.90;;;;;;5090527;28;20666;-80
2022/08/22 13:08:21;;;;;;;1.65;0.98;;;31.70;99.90;;;;;;5097600;28;20211;-80
2022/08/22 13:10:52;;;;;;;0.70;0.57;;;32.20;99.80;;;;;;5093457;28;20240;-80
2022/08/22 13:13:31;;;;;;;0.60;0.60;;;32.50;99.20;;;;;;5093043;28;20229;-80
2022/08/22 13:16:01;;;;;;;0.65;0.65;;;32.70;98.80;;;;;;5076299;28;20169;-81
2022/08/22 13:18:35;;;;;;;0.60;0.60;;;32.80;99.10;;;;;;5087051;28;20189;-80
2022/08/22 13:21:05;;;;;;;0.93;0.93;;;32.90;98.50;;;;;;5097713;28;20282;-80
2022/08/22 13:23:40;;;;;;;1.85;1.40;;;33.20;98.70;;;;;;5079158;28;20181;-81
2022/08/22 13:26:19;;;;;;;0.50;0.50;;;32.50;99.20;;;;;;5105858;28;20176;-81
2022/08/22 13:28:49;;;;;;;0.60;0.60;;;32.60;98.70;;;;;;5085507;28;20186;-80
2022/08/22 13:31:29;;;;;;;0.55;0.55;;;32.30;99.10;;;;;;5094741;28;20674;-80
2022/08/22 13:34:01;;;;;;;0.57;0.52;;;32.40;98.80;;;;;;5082574;28;20203;-80
2022/08/22 13:36:30;;;;;;;0.20;0.20;;;32.80;98.40;;;;;;5082726;28;20227;-80
2022/08/22 13:38:58;;;;;;;0.30;0.30;;;32.80;97.70;;;;;;5086746;28;20205;-80
2022/08/22 13:41:29;;;;;;;0.75;0.55;;;32.00;98.40;;;;;;5090045;28;20212;-80
2022/08/22 13:44:00;;;;;;;0.32;0.32;;;32.40;98.20;;;;;;5098443;28;20272;-80
2022/08/22 13:46:29;;;;;;;1.40;1.13;;;32.70;98.60;;;;;;5092336;28;20208;-80
2022/08/22 13:48:59;;;;;;;0.60;0.60;;;32.80;98.30;;;;;;5084811;28;20283;-80
2022/08/22 13:51:34;;;;;;;0.60;0.60;;;32.60;98.30;;;;;;5090170;28;20204;-80
2022/08/22 13:54:09;;;;;;;0.63;0.63;;;32.80;98.20;;;;;;5092761;28;20171;-80
2022/08/22 13:56:55;;;;;;;1.70;0.80;;;32.80;97.70;;;;;;5084673;28;20701;-80
2022/08/22 13:59:29;;;;;;;0.30;0.30;;;32.60;97.70;;;;;;5087620;28;20206;-80
2022/08/22 14:02:02;;;;;;;1.10;0.57;;;32.80;97.90;;;;;;5074702;28;20204;-80